Time;durP1;ratioP1;P1;durP2;ratioP2;P2;SDS_P1;SDS_P2;PMS_P1;PMS_P2;Temp;Humidity;BMP_temperature;BMP_pressure;BME280_temperature;BME280_humidity;BME280_pressure;Samples;Min_cycle;Max_cycle;Signal;HPM_P1;HPM_P2
2021/12/17 00:05:01;;;;;;;51.67;18.80;;;8.60;99.90;;;;;;5073746;28;20529;-80
2021/12/17 00:07:29;;;;;;;46.50;17.85;;;8.70;99.90;;;;;;5073941;28;20052;-79
2021/12/17 00:09:57;;;;;;;47.28;18.35;;;8.70;99.90;;;;;;5073953;28;20128;-80
2021/12/17 00:12:24;;;;;;;45.08;17.90;;;8.70;99.90;;;;;;5090405;28;20048;-80
2021/12/17 00:14:51;;;;;;;42.63;17.60;;;8.70;99.90;;;;;;5090471;28;20497;-80
2021/12/17 00:17:23;;;;;;;46.38;16.67;;;8.70;99.90;;;;;;5073764;28;20329;-80
2021/12/17 00:50:02;;;;;;;111.18;17.00;;;8.60;99.90;;;;;;5073285;28;20113;-80
2021/12/17 00:52:32;;;;;;;55.67;15.50;;;8.50;99.90;;;;;;5072544;28;20067;-80
2021/12/17 00:54:57;;;;;;;52.50;15.48;;;8.50;99.90;;;;;;5072880;28;20040;-80
2021/12/17 00:57:30;;;;;;;59.58;15.38;;;8.50;99.90;;;;;;5089855;28;20447;-80
2021/12/17 00:59:56;;;;;;;40.67;14.65;;;8.50;99.90;;;;;;5072642;28;20286;-80
2021/12/17 01:02:26;;;;;;;36.20;14.93;;;8.50;99.90;;;;;;5072501;28;20044;-79
2021/12/17 01:04:56;;;;;;;31.65;13.70;;;8.40;99.90;;;;;;5073188;28;20370;-80
2021/12/17 01:07:24;;;;;;;40.13;14.23;;;8.40;99.90;;;;;;5072146;28;20040;-80
2021/12/17 01:09:51;;;;;;;33.25;13.23;;;8.40;99.90;;;;;;5105939;28;20500;-79
2021/12/17 01:12:19;;;;;;;28.35;12.80;;;8.40;99.90;;;;;;5071151;28;20048;-80
2021/12/17 01:14:46;;;;;;;25.67;11.20;;;8.40;99.90;;;;;;5072704;28;20086;-79
2021/12/17 01:17:13;;;;;;;24.23;11.50;;;8.40;99.90;;;;;;5072072;28;20036;-79
2021/12/17 01:20:12;;;;;;;21.23;10.35;;;8.50;99.90;;;;;;5055385;28;20055;-79
2021/12/17 01:36:19;;;;;;;23.65;11.02;;;8.40;99.90;;;;;;5071986;28;20087;-80
2021/12/17 01:41:48;;;;;;;24.08;10.80;;;8.50;99.90;;;;;;5071921;28;20569;-80
2021/12/17 01:44:15;;;;;;;19.45;10.68;;;8.50;99.90;;;;;;5071641;28;20033;-80
2021/12/17 01:46:43;;;;;;;21.77;11.05;;;8.50;99.90;;;;;;5071637;28;20086;-80
2021/12/17 02:00:05;;;;;;;22.13;10.93;;;8.70;99.90;;;;;;5071705;28;20417;-79
2021/12/17 02:02:37;;;;;;;;;;;8.80;99.90;;;;;;5055408;28;20036;-79
2021/12/17 02:05:03;;;;;;;27.27;10.98;;;8.80;99.90;;;;;;5071948;28;20054;-79
2021/12/17 02:07:29;;;;;;;22.80;11.40;;;8.70;99.90;;;;;;5071910;28;20105;-79
2021/12/17 02:20:41;;;;;;;26.35;11.52;;;8.60;99.90;;;;;;5071610;28;20048;-79
2021/12/17 02:28:50;;;;;;;43.25;12.90;;;8.70;99.90;;;;;;5071176;28;20079;-79
2021/12/17 02:31:26;;;;;;;26.52;11.60;;;8.70;99.90;;;;;;5071538;28;20405;-79
2021/12/17 02:33:54;;;;;;;39.22;12.68;;;8.80;99.90;;;;;;5070979;28;20074;-79
2021/12/17 02:36:24;;;;;;;38.80;12.43;;;8.70;99.90;;;;;;5070885;28;20040;-80
2021/12/17 02:38:52;;;;;;;44.38;12.13;;;8.70;99.90;;;;;;5070999;28;20071;-79
2021/12/17 02:46:46;;;;;;;32.40;10.85;;;8.60;99.90;;;;;;5070782;28;20142;-79
2021/12/17 02:49:12;;;;;;;26.45;10.85;;;8.50;99.90;;;;;;5071236;28;20454;-80
2021/12/17 02:51:40;;;;;;;20.60;10.00;;;8.50;99.90;;;;;;5070941;28;20036;-80
2021/12/17 02:54:06;;;;;;;20.88;9.80;;;8.50;99.90;;;;;;5070735;28;20094;-80
2021/12/17 02:56:32;;;;;;;26.45;9.82;;;8.50;99.90;;;;;;5071314;28;20029;-80
2021/12/17 02:58:57;;;;;;;20.05;10.45;;;8.50;99.90;;;;;;5071092;28;20167;-80
2021/12/17 03:01:24;;;;;;;22.58;10.88;;;8.50;99.90;;;;;;5054485;28;20036;-80
2021/12/17 03:03:51;;;;;;;17.48;9.90;;;8.50;99.90;;;;;;5071544;28;20111;-79
2021/12/17 03:06:18;;;;;;;15.50;8.65;;;8.50;99.90;;;;;;5074772;28;20043;-79
2021/12/17 03:08:47;;;;;;;16.42;9.43;;;8.40;99.90;;;;;;5073945;28;20409;-79
2021/12/17 03:11:12;;;;;;;15.57;8.95;;;8.50;99.90;;;;;;5074092;28;20036;-79
2021/12/17 03:13:38;;;;;;;16.45;8.55;;;8.60;99.90;;;;;;5074173;28;20059;-79
2021/12/17 03:16:29;;;;;;;15.05;8.45;;;8.60;99.90;;;;;;5074915;28;20047;-79
2021/12/17 03:19:06;;;;;;;13.80;8.40;;;8.60;99.90;;;;;;5072443;28;20072;-79
2021/12/17 03:24:18;;;;;;;13.95;8.32;;;8.60;99.90;;;;;;5073651;28;20110;-79
2021/12/17 03:26:45;;;;;;;13.02;7.82;;;8.60;99.90;;;;;;5074092;28;20063;-79
2021/12/17 03:29:11;;;;;;;14.57;8.60;;;8.60;99.90;;;;;;5074429;28;20091;-79
2021/12/17 03:31:37;;;;;;;14.32;8.50;;;8.50;99.90;;;;;;5074356;28;20040;-79
2021/12/17 03:34:20;;;;;;;12.93;8.18;;;8.50;99.90;;;;;;5057328;28;20032;-79
2021/12/17 03:36:53;;;;;;;12.88;7.75;;;8.50;99.90;;;;;;5074322;28;20425;-79
2021/12/17 03:39:19;;;;;;;14.43;7.97;;;8.50;99.90;;;;;;5074178;28;20040;-80
2021/12/17 03:41:50;;;;;;;14.02;8.32;;;8.50;99.90;;;;;;5073575;28;20052;-79
2021/12/17 03:44:16;;;;;;;13.63;8.10;;;8.50;99.90;;;;;;5073181;28;20562;-79
2021/12/17 03:46:44;;;;;;;14.48;8.63;;;8.50;99.90;;;;;;5073803;28;20041;-80
2021/12/17 03:49:10;;;;;;;14.20;8.43;;;8.60;99.90;;;;;;5057538;28;20050;-80
2021/12/17 03:51:46;;;;;;;12.40;8.32;;;8.50;99.90;;;;;;5057040;28;20439;-80
2021/12/17 03:54:12;;;;;;;14.43;8.00;;;8.50;99.90;;;;;;5073932;28;20065;-80
2021/12/17 03:56:37;;;;;;;14.63;8.77;;;8.50;99.90;;;;;;5074118;28;20086;-79
2021/12/17 03:59:10;;;;;;;12.13;8.43;;;8.50;99.90;;;;;;5073415;28;20072;-80
2021/12/17 04:01:35;;;;;;;13.80;8.80;;;8.60;99.90;;;;;;5073925;28;20063;-79
2021/12/17 04:04:01;;;;;;;15.20;8.85;;;8.60;99.90;;;;;;5073651;28;20032;-80
2021/12/17 04:06:27;;;;;;;15.35;9.02;;;8.60;99.90;;;;;;5073542;28;20083;-79
2021/12/17 04:08:54;;;;;;;14.00;9.68;;;8.70;99.90;;;;;;5073640;28;20502;-80
2021/12/17 04:11:20;;;;;;;12.15;8.40;;;8.70;99.90;;;;;;5073767;28;20041;-80
2021/12/17 04:13:53;;;;;;;12.40;8.70;;;8.60;99.90;;;;;;5056906;28;20047;-80
2021/12/17 04:16:23;;;;;;;13.30;9.35;;;8.60;99.90;;;;;;5073548;28;20036;-79
2021/12/17 04:18:48;;;;;;;13.73;9.25;;;8.60;99.90;;;;;;5057153;28;20390;-79
2021/12/17 04:21:15;;;;;;;15.65;9.32;;;8.60;99.90;;;;;;5073815;28;20082;-80
2021/12/17 04:23:42;;;;;;;16.35;9.48;;;8.60;99.90;;;;;;5056352;28;20066;-79
2021/12/17 04:26:08;;;;;;;17.15;9.85;;;8.60;99.90;;;;;;5057037;28;20048;-79
2021/12/17 04:28:36;;;;;;;14.45;10.18;;;8.50;99.90;;;;;;5073891;28;20094;-80
2021/12/17 04:31:02;;;;;;;14.45;9.80;;;8.60;99.90;;;;;;5073254;28;20044;-79
2021/12/17 04:33:27;;;;;;;14.95;9.18;;;8.60;99.90;;;;;;5072919;28;20044;-79
2021/12/17 04:35:53;;;;;;;16.42;10.48;;;8.50;99.90;;;;;;5073275;28;20068;-80
2021/12/17 04:38:21;;;;;;;14.73;8.85;;;8.50;99.90;;;;;;5090070;28;20085;-80
2021/12/17 04:40:49;;;;;;;16.48;8.93;;;8.50;99.90;;;;;;5073320;28;20097;-79
2021/12/17 04:43:37;;;;;;;11.73;7.60;;;8.40;99.90;;;;;;5072889;28;20119;-80
2021/12/17 04:46:25;;;;;;;11.98;7.90;;;8.40;99.90;;;;;;5072461;28;20040;-80
2021/12/17 04:57:28;;;;;;;12.80;8.70;;;8.40;99.90;;;;;;5072923;28;20132;-80
2021/12/17 04:59:57;;;;;;;11.98;8.35;;;8.40;99.90;;;;;;5073059;28;20036;-80
2021/12/17 05:02:23;;;;;;;12.23;8.18;;;8.40;99.90;;;;;;5056013;28;20102;-79
2021/12/17 05:04:48;;;;;;;13.95;8.48;;;8.40;99.90;;;;;;5073182;28;20037;-79
2021/12/17 05:07:14;;;;;;;10.68;7.65;;;8.40;99.90;;;;;;5072751;28;20086;-79
2021/12/17 05:09:55;;;;;;;12.82;7.78;;;8.40;99.90;;;;;;5072645;28;20044;-80
2021/12/17 05:20:45;;;;;;;10.43;7.32;;;8.40;99.90;;;;;;5072608;28;20110;-80
2021/12/17 05:23:10;;;;;;;12.00;7.47;;;8.40;99.90;;;;;;5055621;28;20047;-79
2021/12/17 05:25:36;;;;;;;11.27;7.55;;;8.40;99.90;;;;;;5072099;28;20037;-79
2021/12/17 05:28:02;;;;;;;12.90;8.23;;;8.40;99.90;;;;;;5071750;28;20554;-79
2021/12/17 05:30:29;;;;;;;12.18;7.70;;;8.40;99.90;;;;;;5072073;28;20052;-79
2021/12/17 05:32:55;;;;;;;11.20;7.47;;;8.50;99.90;;;;;;5055530;28;20439;-79
2021/12/17 05:35:21;;;;;;;12.93;8.15;;;8.50;99.90;;;;;;5070768;28;20504;-79
2021/12/17 05:37:47;;;;;;;11.18;7.43;;;8.50;99.90;;;;;;5070575;28;20115;-80
2021/12/17 05:40:13;;;;;;;11.35;7.80;;;8.50;99.90;;;;;;5072071;28;20078;-79
2021/12/17 05:42:40;;;;;;;12.73;8.07;;;8.60;99.90;;;;;;5072259;28;20043;-80
2021/12/17 05:45:19;;;;;;;13.73;8.40;;;8.60;99.90;;;;;;5071977;28;20505;-80
2021/12/17 05:47:45;;;;;;;12.82;8.40;;;8.60;99.90;;;;;;5071871;28;20053;-80
2021/12/17 05:50:10;;;;;;;12.90;8.52;;;8.60;99.90;;;;;;5072395;28;20047;-80
2021/12/17 05:52:36;;;;;;;13.45;8.35;;;8.50;99.90;;;;;;5071583;28;20040;-80
2021/12/17 05:55:02;;;;;;;13.38;8.63;;;8.50;99.90;;;;;;5055027;28;20048;-80
2021/12/17 05:57:27;;;;;;;12.05;7.93;;;8.50;99.90;;;;;;5071665;28;20462;-80
2021/12/17 05:59:53;;;;;;;11.35;8.35;;;8.50;99.90;;;;;;5070644;28;20040;-80
2021/12/17 06:02:19;;;;;;;14.02;8.20;;;8.40;99.90;;;;;;5055271;28;20323;-80
2021/12/17 06:04:45;;;;;;;12.65;8.90;;;8.40;99.90;;;;;;5071411;28;20056;-80
2021/12/17 06:07:11;;;;;;;14.50;8.73;;;8.40;99.90;;;;;;5071942;28;20123;-80
2021/12/17 06:09:37;;;;;;;13.70;8.73;;;8.40;99.90;;;;;;5071720;28;20132;-79
2021/12/17 06:12:03;;;;;;;13.13;8.73;;;8.40;99.90;;;;;;5053578;28;20175;-80
2021/12/17 06:14:30;;;;;;;14.63;9.57;;;8.40;99.90;;;;;;5071696;28;20044;-80
2021/12/17 06:16:56;;;;;;;14.40;9.10;;;8.40;99.90;;;;;;5071736;28;20128;-80
2021/12/17 06:19:22;;;;;;;14.05;9.27;;;8.40;99.90;;;;;;5054489;28;20117;-79
2021/12/17 06:21:48;;;;;;;15.48;9.82;;;8.40;99.90;;;;;;5054703;28;20123;-80
2021/12/17 06:24:14;;;;;;;15.75;10.30;;;8.40;99.90;;;;;;5071038;28;20455;-80
2021/12/17 06:26:39;;;;;;;16.60;10.27;;;8.30;99.90;;;;;;5071523;28;20476;-79
2021/12/17 06:29:05;;;;;;;14.02;9.30;;;8.30;99.90;;;;;;5071532;28;20063;-80
2021/12/17 06:31:31;;;;;;;12.98;9.25;;;8.30;99.90;;;;;;5071216;28;20033;-80
2021/12/17 06:33:56;;;;;;;17.95;10.30;;;8.30;99.90;;;;;;5071138;28;20078;-80
2021/12/17 06:36:22;;;;;;;16.58;10.32;;;8.30;99.90;;;;;;5087230;28;20135;-79
2021/12/17 06:38:47;;;;;;;13.95;9.73;;;8.30;99.90;;;;;;5072227;28;20413;-79
2021/12/17 06:41:13;;;;;;;14.40;9.57;;;8.20;99.90;;;;;;5070311;28;20036;-80
2021/12/17 06:43:41;;;;;;;15.07;9.68;;;8.20;99.90;;;;;;5054290;28;20117;-80
2021/12/17 06:48:55;;;;;;;14.50;9.50;;;8.20;99.90;;;;;;5071133;28;20051;-80
2021/12/17 06:57:50;;;;;;;14.70;9.15;;;8.30;99.90;;;;;;5071621;28;20047;-80
2021/12/17 07:08:09;;;;;;;13.55;8.50;;;8.40;99.90;;;;;;5072344;28;20079;-80
2021/12/17 07:10:42;;;;;;;13.90;8.80;;;8.40;99.90;;;;;;5069999;28;20098;-80
2021/12/17 07:30:50;;;;;;;14.18;8.85;;;8.30;99.90;;;;;;5070468;28;20083;-80
2021/12/17 07:39:35;;;;;;;15.38;9.00;;;8.40;99.90;;;;;;5070049;28;20076;-79
2021/12/17 07:42:02;;;;;;;14.75;9.40;;;8.30;99.90;;;;;;5070749;28;20116;-80
2021/12/17 07:44:27;;;;;;;15.25;9.57;;;8.30;99.90;;;;;;5070561;28;20041;-79
2021/12/17 07:46:53;;;;;;;14.82;9.05;;;8.30;99.90;;;;;;5070110;28;20105;-79
2021/12/17 07:49:18;;;;;;;16.17;9.63;;;8.40;99.90;;;;;;5070445;28;20036;-80
2021/12/17 07:51:44;;;;;;;15.30;9.18;;;8.40;99.90;;;;;;5073593;28;20501;-80
2021/12/17 07:54:10;;;;;;;16.13;9.48;;;8.30;99.90;;;;;;5075200;28;20036;-80
2021/12/17 07:56:37;;;;;;;15.65;9.02;;;8.40;99.90;;;;;;5057379;28;20042;-80
2021/12/17 07:59:08;;;;;;;15.80;9.10;;;8.40;99.90;;;;;;5073913;28;20071;-80
2021/12/17 08:01:35;;;;;;;14.80;9.27;;;8.40;99.90;;;;;;5073867;28;20037;-80
2021/12/17 08:04:05;;;;;;;15.23;9.13;;;8.50;99.90;;;;;;5057849;28;20049;-79
2021/12/17 08:06:31;;;;;;;13.73;8.70;;;8.40;99.90;;;;;;5072717;28;20136;-80
2021/12/17 08:08:57;;;;;;;13.82;8.73;;;8.50;99.90;;;;;;5071652;28;20378;-80
2021/12/17 08:11:22;;;;;;;14.27;8.75;;;8.60;99.90;;;;;;5071310;28;20047;-80
2021/12/17 08:13:50;;;;;;;14.30;8.80;;;8.60;99.90;;;;;;5072619;28;20045;-80
2021/12/17 08:16:32;;;;;;;13.95;8.73;;;8.50;99.90;;;;;;5072447;28;20036;-80
2021/12/17 08:23:21;;;;;;;12.35;8.00;;;8.50;99.90;;;;;;5072449;28;20047;-80
2021/12/17 08:25:31;;;;;;;;;;;8.50;99.90;;;;;;5072229;28;20052;-80
2021/12/17 08:27:33;;;;;;;12.45;7.95;;;8.50;99.90;;;;;;5069451;28;19926;-80
2021/12/17 08:32:40;;;;;;;14.65;8.35;;;8.50;99.90;;;;;;5073438;28;20057;-79
2021/12/17 08:35:07;;;;;;;14.75;8.35;;;8.60;99.90;;;;;;5072916;28;20132;-80
2021/12/17 08:37:33;;;;;;;13.23;8.40;;;8.50;99.90;;;;;;5056338;28;20474;-80
2021/12/17 08:39:59;;;;;;;12.95;8.70;;;8.50;99.90;;;;;;5072989;28;20040;-80
2021/12/17 08:42:25;;;;;;;15.07;8.63;;;8.60;99.90;;;;;;5072489;28;20036;-80
2021/12/17 08:44:50;;;;;;;12.93;7.93;;;8.60;99.90;;;;;;5072830;28;20435;-80
2021/12/17 08:47:16;;;;;;;13.13;8.40;;;8.60;99.90;;;;;;5055969;28;20039;-80
2021/12/17 08:49:43;;;;;;;13.60;8.55;;;8.60;99.90;;;;;;5055630;28;20032;-79
2021/12/17 08:52:09;;;;;;;14.70;8.90;;;8.60;99.90;;;;;;5072708;28;20040;-80
2021/12/17 08:54:35;;;;;;;13.00;8.45;;;8.60;99.90;;;;;;5055600;28;20086;-80
2021/12/17 08:57:02;;;;;;;13.15;8.68;;;8.60;99.90;;;;;;5071987;28;20428;-80
2021/12/17 08:59:29;;;;;;;13.32;8.98;;;8.60;99.90;;;;;;5072527;28;20036;-80
2021/12/17 09:01:55;;;;;;;15.20;9.00;;;8.60;99.90;;;;;;5071492;28;20044;-80
2021/12/17 09:04:21;;;;;;;15.70;9.07;;;8.70;99.90;;;;;;5055468;28;20076;-79
2021/12/17 09:06:46;;;;;;;14.32;8.77;;;8.70;99.90;;;;;;5072436;28;20067;-80
2021/12/17 09:09:17;;;;;;;12.73;8.40;;;8.70;99.90;;;;;;5072658;28;20048;-80
2021/12/17 09:11:43;;;;;;;15.98;9.20;;;8.70;99.90;;;;;;5072442;28;20045;-80
2021/12/17 09:14:09;;;;;;;14.32;9.00;;;8.80;99.90;;;;;;5072828;28;20037;-80
2021/12/17 09:16:35;;;;;;;14.90;8.90;;;8.80;99.90;;;;;;5072703;28;20044;-79
2021/12/17 09:19:03;;;;;;;12.85;8.65;;;8.80;99.90;;;;;;5072024;28;20036;-80
2021/12/17 09:21:29;;;;;;;18.60;9.02;;;8.80;99.90;;;;;;5072828;28;20397;-80
2021/12/17 09:23:55;;;;;;;13.77;8.52;;;8.80;99.90;;;;;;5072409;28;20052;-80
2021/12/17 09:26:22;;;;;;;12.45;8.32;;;8.90;99.90;;;;;;5072286;28;20398;-80
2021/12/17 09:28:48;;;;;;;14.68;8.65;;;8.90;99.90;;;;;;5069783;28;20044;-80
2021/12/17 09:31:14;;;;;;;14.90;8.50;;;8.90;99.90;;;;;;5070683;28;20124;-80
2021/12/17 09:33:42;;;;;;;12.68;8.25;;;8.90;99.90;;;;;;5070534;28;20128;-80
2021/12/17 09:36:08;;;;;;;13.15;8.02;;;8.90;99.90;;;;;;5070686;28;20032;-80
2021/12/17 09:38:34;;;;;;;13.10;8.02;;;9.00;99.90;;;;;;5070106;28;20051;-80
2021/12/17 09:41:00;;;;;;;11.82;7.45;;;9.00;99.90;;;;;;5070923;28;20044;-80
2021/12/17 09:43:27;;;;;;;12.88;7.85;;;9.00;99.90;;;;;;5054480;28;20040;-80
2021/12/17 09:45:53;;;;;;;13.18;8.02;;;9.00;99.90;;;;;;5071672;28;20040;-80
2021/12/17 09:48:20;;;;;;;12.15;7.82;;;9.00;99.90;;;;;;5054910;28;20064;-80
2021/12/17 09:50:46;;;;;;;12.07;7.78;;;9.00;99.90;;;;;;5071791;28;20040;-80
2021/12/17 09:53:11;;;;;;;10.75;7.30;;;9.00;99.90;;;;;;5073320;28;20044;-80
2021/12/17 09:55:37;;;;;;;11.25;7.93;;;8.90;99.90;;;;;;5072489;28;20028;-80
2021/12/17 09:58:03;;;;;;;11.40;7.97;;;8.90;99.90;;;;;;5071502;28;20125;-80
2021/12/17 10:00:29;;;;;;;14.07;7.80;;;8.90;99.90;;;;;;5072451;28;20098;-80
2021/12/17 10:02:55;;;;;;;12.07;7.63;;;8.90;99.90;;;;;;5072571;28;20072;-80
2021/12/17 10:05:31;;;;;;;12.45;6.97;;;8.90;99.90;;;;;;5072411;28;20603;-80
2021/12/17 10:08:04;;;;;;;9.82;6.47;;;8.90;99.90;;;;;;5054647;28;20037;-80
2021/12/17 10:10:45;;;;;;;14.85;7.63;;;8.90;99.90;;;;;;5071755;28;20044;-80
2021/12/17 10:13:19;;;;;;;12.45;6.72;;;8.90;99.90;;;;;;5072554;28;20610;-80
2021/12/17 10:15:46;;;;;;;;;;;8.90;99.90;;;;;;5073573;28;20041;-80
2021/12/17 10:18:13;;;;;;;11.80;7.07;;;8.90;99.90;;;;;;5074136;28;19935;-80
2021/12/17 10:20:57;;;;;;;14.10;6.70;;;8.90;99.90;;;;;;5072927;28;20071;-80
2021/12/17 10:23:25;;;;;;;13.70;7.57;;;8.90;99.90;;;;;;5073315;28;20032;-80
2021/12/17 10:25:51;;;;;;;14.38;7.25;;;8.90;99.90;;;;;;5075887;28;20469;-80
2021/12/17 10:28:17;;;;;;;13.73;7.57;;;8.90;99.90;;;;;;5073222;28;20072;-80
2021/12/17 10:30:47;;;;;;;12.80;7.53;;;8.90;99.90;;;;;;5073843;28;20554;-81
2021/12/17 10:33:18;;;;;;;14.07;7.40;;;8.90;99.90;;;;;;5073041;28;20127;-80
2021/12/17 10:35:48;;;;;;;16.73;7.90;;;8.80;99.90;;;;;;5072171;28;20036;-80
2021/12/17 10:38:16;;;;;;;11.43;7.18;;;8.90;99.90;;;;;;5056483;28;20043;-80
2021/12/17 10:40:51;;;;;;;15.32;7.60;;;8.90;99.90;;;;;;5073876;28;20120;-81
2021/12/17 10:43:28;;;;;;;14.63;7.90;;;8.90;99.90;;;;;;5072088;28;20048;-81
2021/12/17 10:48:33;;;;;;;16.65;7.40;;;8.90;99.90;;;;;;5074517;28;20156;-81
2021/12/17 10:51:08;;;;;;;13.85;7.40;;;8.80;99.90;;;;;;5072418;28;20040;-80
2021/12/17 10:53:34;;;;;;;19.40;8.35;;;8.90;99.90;;;;;;5072757;28;20044;-80
2021/12/17 10:56:00;;;;;;;13.48;7.68;;;8.80;99.90;;;;;;5071816;28;20143;-80
2021/12/17 10:58:26;;;;;;;15.05;7.47;;;8.90;99.90;;;;;;5072964;28;20102;-81
2021/12/17 11:00:58;;;;;;;15.85;7.50;;;8.90;99.90;;;;;;5070742;28;20090;-81
2021/12/17 11:03:25;;;;;;;12.98;7.07;;;9.00;99.90;;;;;;5072153;28;20119;-80
2021/12/17 11:05:51;;;;;;;14.43;7.40;;;9.00;99.90;;;;;;5072646;28;20040;-80
2021/12/17 11:08:28;;;;;;;14.50;8.00;;;9.00;99.90;;;;;;5055890;28;20037;-80
2021/12/17 11:10:58;;;;;;;16.00;7.88;;;9.00;99.90;;;;;;5073178;28;20051;-81
2021/12/17 11:13:25;;;;;;;15.98;7.45;;;9.00;99.90;;;;;;5054746;28;20219;-80
2021/12/17 11:15:52;;;;;;;14.43;7.45;;;9.00;99.90;;;;;;5071458;28;20072;-80
2021/12/17 11:18:18;;;;;;;14.45;7.35;;;9.00;99.90;;;;;;5072130;28;20090;-80
2021/12/17 11:20:44;;;;;;;14.57;7.13;;;9.00;99.90;;;;;;5072180;28;20445;-80
2021/12/17 11:23:14;;;;;;;13.93;8.20;;;9.00;99.90;;;;;;5072145;28;20040;-80
2021/12/17 11:25:41;;;;;;;15.25;7.60;;;9.10;99.90;;;;;;5074514;28;20048;-80
2021/12/17 11:28:08;;;;;;;16.05;8.10;;;9.10;99.90;;;;;;5076023;28;20085;-80
2021/12/17 11:30:37;;;;;;;14.35;7.63;;;9.10;99.90;;;;;;5092023;28;20093;-80
2021/12/17 11:33:04;;;;;;;14.15;7.65;;;9.10;99.90;;;;;;5072672;28;20055;-80
2021/12/17 11:35:31;;;;;;;16.23;8.00;;;9.10;99.90;;;;;;5074000;28;20048;-80
2021/12/17 11:38:01;;;;;;;13.10;7.03;;;9.20;99.90;;;;;;5072393;28;20374;-80
2021/12/17 11:40:50;;;;;;;10.30;7.18;;;9.20;99.90;;;;;;5071219;28;20029;-80
2021/12/17 11:43:16;;;;;;;12.30;7.07;;;9.20;99.90;;;;;;5090420;28;20075;-80
2021/12/17 11:45:55;;;;;;;12.40;6.90;;;9.20;99.90;;;;;;5073823;28;20052;-80
2021/12/17 11:48:22;;;;;;;10.05;6.30;;;9.20;99.90;;;;;;5090604;28;20064;-80
2021/12/17 11:51:13;;;;;;;12.65;6.28;;;9.20;99.90;;;;;;5074940;28;20050;-80
2021/12/17 11:54:09;;;;;;;11.35;6.68;;;9.30;99.90;;;;;;5073873;28;20362;-80
2021/12/17 11:56:43;;;;;;;11.32;7.35;;;9.30;99.90;;;;;;5057768;28;20109;-80
2021/12/17 11:59:30;;;;;;;11.15;7.72;;;9.20;99.90;;;;;;5073852;28;20037;-80
2021/12/17 12:02:05;;;;;;;9.77;6.53;;;9.20;99.90;;;;;;5072424;28;20049;-80
2021/12/17 12:04:39;;;;;;;9.45;6.43;;;9.30;99.90;;;;;;5105890;28;20072;-80
2021/12/17 12:07:33;;;;;;;9.27;6.25;;;9.20;99.90;;;;;;5073250;28;20036;-80
2021/12/17 12:10:21;;;;;;;9.60;5.78;;;9.30;99.90;;;;;;5053928;28;20060;-80
2021/12/17 12:12:46;;;;;;;10.13;6.38;;;9.30;99.90;;;;;;5074164;28;20382;-79
2021/12/17 12:15:22;;;;;;;10.35;8.00;;;9.20;99.90;;;;;;5073833;28;20162;-79
2021/12/17 12:17:57;;;;;;;11.68;7.47;;;9.20;99.90;;;;;;5073397;28;20052;-80
2021/12/17 12:20:43;;;;;;;12.05;6.95;;;9.30;99.90;;;;;;5073567;28;20040;-79
2021/12/17 12:23:30;;;;;;;7.95;6.07;;;9.30;99.90;;;;;;5073081;28;20040;-80
2021/12/17 12:26:02;;;;;;;9.40;6.15;;;9.30;99.90;;;;;;5056791;28;20400;-79
2021/12/17 12:28:49;;;;;;;10.85;5.88;;;9.30;99.90;;;;;;5073560;28;20436;-79
2021/12/17 12:31:24;;;;;;;10.13;5.82;;;9.30;99.90;;;;;;5074292;28;20040;-79
2021/12/17 12:34:10;;;;;;;7.60;5.80;;;9.20;99.90;;;;;;5073995;28;20409;-79
2021/12/17 12:36:56;;;;;;;8.20;6.00;;;9.20;99.90;;;;;;5073251;28;20041;-79
2021/12/17 12:39:32;;;;;;;8.57;5.78;;;9.30;99.90;;;;;;5073687;28;20028;-79
2021/12/17 12:42:05;;;;;;;11.50;6.22;;;9.20;99.90;;;;;;5073157;28;20063;-79
2021/12/17 12:44:39;;;;;;;9.88;6.05;;;9.20;99.90;;;;;;5057197;28;20059;-80
2021/12/17 12:47:06;;;;;;;9.63;5.97;;;9.20;99.90;;;;;;5073499;28;20488;-80
2021/12/17 12:49:49;;;;;;;9.40;6.35;;;9.20;99.90;;;;;;5057073;28;20048;-80
2021/12/17 12:52:15;;;;;;;8.82;5.38;;;9.20;99.90;;;;;;5073303;28;20136;-80
2021/12/17 12:54:41;;;;;;;8.43;5.65;;;9.20;99.90;;;;;;5073929;28;20044;-80
2021/12/17 12:57:08;;;;;;;10.70;6.25;;;9.20;99.90;;;;;;5073601;28;20505;-79
2021/12/17 12:59:34;;;;;;;9.35;5.43;;;9.20;99.90;;;;;;5073060;28;20075;-80
2021/12/17 13:02:00;;;;;;;9.15;5.82;;;9.20;99.90;;;;;;5072081;28;20455;-78
2021/12/17 13:04:30;;;;;;;9.77;6.25;;;9.20;99.90;;;;;;5062646;28;20133;-77
2021/12/17 13:06:56;;;;;;;9.45;5.35;;;9.20;99.90;;;;;;5056491;28;20043;-77
2021/12/17 13:09:29;;;;;;;8.68;5.53;;;9.20;99.90;;;;;;5084749;28;20040;-78
2021/12/17 13:11:55;;;;;;;7.45;5.78;;;9.20;99.90;;;;;;5051447;28;20083;-77
2021/12/17 13:14:24;;;;;;;7.85;5.97;;;9.20;99.90;;;;;;5053904;28;20466;-78
2021/12/17 13:17:18;;;;;;;8.52;5.57;;;9.20;99.90;;;;;;5070795;28;20040;-77
2021/12/17 13:22:54;;;;;;;8.98;6.55;;;9.20;99.90;;;;;;5071321;28;20044;-78
2021/12/17 13:25:27;;;;;;;7.10;5.47;;;9.20;99.90;;;;;;5071426;28;20366;-78
2021/12/17 13:27:54;;;;;;;7.13;5.00;;;9.20;99.90;;;;;;5058479;28;20045;-79
2021/12/17 13:30:27;;;;;;;6.80;5.20;;;9.20;99.90;;;;;;5071466;28;20047;-77
2021/12/17 13:32:54;;;;;;;8.20;5.38;;;9.20;99.90;;;;;;5071018;28;20040;-77
2021/12/17 13:35:22;;;;;;;8.32;5.82;;;9.10;99.90;;;;;;5071173;28;20044;-77
2021/12/17 13:37:52;;;;;;;7.97;5.72;;;9.20;99.90;;;;;;5071079;28;20039;-78
2021/12/17 13:40:23;;;;;;;8.48;5.90;;;9.20;99.90;;;;;;5071051;28;20510;-78
2021/12/17 13:42:49;;;;;;;8.82;5.43;;;9.20;99.90;;;;;;5070980;28;20417;-78
2021/12/17 13:45:21;;;;;;;8.77;6.20;;;9.20;99.90;;;;;;5054367;28;20040;-78
2021/12/17 13:47:53;;;;;;;6.68;5.60;;;9.20;99.90;;;;;;5071364;28;20098;-80
2021/12/17 13:50:28;;;;;;;8.48;5.65;;;9.20;99.90;;;;;;5074226;28;20048;-80
2021/12/17 13:53:10;;;;;;;8.40;5.53;;;9.10;99.90;;;;;;5072056;28;20055;-80
2021/12/17 13:55:45;;;;;;;7.78;5.90;;;9.10;99.90;;;;;;5055213;28;20032;-80
2021/12/17 13:58:13;;;;;;;7.10;5.53;;;9.10;99.90;;;;;;5072997;28;20437;-80
2021/12/17 14:00:46;;;;;;;7.07;5.43;;;9.20;99.90;;;;;;5073822;28;20079;-79
2021/12/17 14:03:14;;;;;;;7.32;5.88;;;9.10;99.90;;;;;;5074118;28;20074;-80
2021/12/17 14:05:49;;;;;;;6.72;5.15;;;9.20;99.90;;;;;;5073257;28;20051;-80
2021/12/17 14:08:20;;;;;;;7.43;5.38;;;9.20;99.90;;;;;;5072342;28;20045;-80
2021/12/17 14:10:48;;;;;;;6.75;5.68;;;9.10;99.90;;;;;;5055002;28;20056;-79
2021/12/17 14:13:22;;;;;;;7.45;5.50;;;9.10;99.90;;;;;;5071432;28;20085;-80
2021/12/17 14:15:48;;;;;;;7.97;5.20;;;9.10;99.90;;;;;;5072204;28;20497;-80
2021/12/17 14:18:16;;;;;;;7.90;5.65;;;9.10;99.90;;;;;;5072039;28;20036;-80
2021/12/17 14:20:44;;;;;;;8.98;5.65;;;9.10;99.90;;;;;;5072254;28;20401;-80
2021/12/17 14:23:17;;;;;;;9.20;6.15;;;9.10;99.90;;;;;;5071871;28;20047;-80
2021/12/17 14:25:48;;;;;;;7.50;5.75;;;9.10;99.90;;;;;;5089300;28;20086;-80
2021/12/17 14:28:40;;;;;;;10.02;6.60;;;9.10;99.90;;;;;;5071849;28;20495;-80
2021/12/17 14:31:09;;;;;;;8.98;6.22;;;9.10;99.90;;;;;;5046036;28;20044;-80
2021/12/17 14:33:43;;;;;;;12.63;6.22;;;9.10;99.90;;;;;;5071613;28;20047;-80
2021/12/17 14:36:11;;;;;;;10.70;6.88;;;9.10;99.90;;;;;;5072651;28;20079;-80
2021/12/17 14:39:17;;;;;;;8.98;6.53;;;9.10;99.90;;;;;;5058037;28;20098;-80
2021/12/17 14:41:58;;;;;;;8.23;6.28;;;9.10;99.90;;;;;;5050907;28;20556;-80
2021/12/17 14:47:02;;;;;;;10.38;6.60;;;9.10;99.90;;;;;;5051208;28;20045;-80
2021/12/17 15:00:30;;;;;;;7.75;6.00;;;9.00;99.90;;;;;;5051392;28;20040;-80
2021/12/17 15:03:21;;;;;;;8.45;5.97;;;9.10;99.90;;;;;;5055268;28;20151;-80
2021/12/17 15:05:47;;;;;;;8.13;5.78;;;9.10;99.90;;;;;;5055281;28;20176;-80
2021/12/17 15:08:13;;;;;;;8.25;6.40;;;9.00;99.90;;;;;;5054990;28;20077;-80
2021/12/17 15:10:39;;;;;;;8.95;6.28;;;9.00;99.90;;;;;;5054800;28;20415;-80
2021/12/17 15:13:06;;;;;;;9.35;6.05;;;9.00;99.90;;;;;;5054687;28;20037;-80
2021/12/17 15:15:37;;;;;;;11.57;6.03;;;9.00;99.90;;;;;;5055121;28;20036;-80
2021/12/17 15:18:14;;;;;;;8.60;5.90;;;9.00;99.90;;;;;;5056638;28;20037;-80
2021/12/17 15:20:41;;;;;;;8.35;5.57;;;9.00;99.90;;;;;;5075374;28;20067;-80
2021/12/17 15:23:08;;;;;;;8.15;6.43;;;9.00;99.90;;;;;;5070097;28;20540;-80
2021/12/17 15:25:36;;;;;;;8.50;6.20;;;9.00;99.90;;;;;;5057848;28;20044;-80
2021/12/17 15:28:03;;;;;;;9.40;5.80;;;9.00;99.90;;;;;;5074361;28;20063;-79
2021/12/17 15:30:32;;;;;;;9.10;6.47;;;9.00;99.90;;;;;;5074555;28;20036;-80
2021/12/17 15:32:58;;;;;;;9.18;6.40;;;9.00;99.90;;;;;;5075470;28;20071;-80
2021/12/17 15:35:26;;;;;;;9.35;6.53;;;8.90;99.90;;;;;;5060587;28;20044;-79
2021/12/17 15:37:52;;;;;;;8.18;6.47;;;9.00;99.90;;;;;;5067852;28;20477;-80
2021/12/17 15:40:18;;;;;;;11.60;6.20;;;8.90;99.90;;;;;;5073120;28;20097;-80
2021/12/17 15:42:44;;;;;;;9.35;6.13;;;8.90;99.90;;;;;;5073150;28;20040;-80
2021/12/17 15:45:11;;;;;;;8.80;6.68;;;8.90;99.90;;;;;;5073740;28;20040;-80
2021/12/17 15:47:36;;;;;;;11.27;6.70;;;8.90;99.90;;;;;;5073454;28;20032;-79
2021/12/17 15:50:05;;;;;;;9.38;6.93;;;8.90;99.90;;;;;;5073425;28;20035;-80